Time;durP1;ratioP1;P1;durP2;ratioP2;P2;SDS_P1;SDS_P2;PMS_P1;PMS_P2;Temp;Humidity;BMP_temperature;BMP_pressure;BME280_temperature;BME280_humidity;BME280_pressure;Samples;Min_cycle;Max_cycle;Signal;HPM_P1;HPM_P2
2020/12/02 00:11:30;;;;;;;60.88;23.62;;;;;;;-1.43;100.00;101507.27;10550496;84;21040;-80
2020/12/02 00:26:34;;;;;;;50.88;22.05;;;;;;;-1.55;100.00;101504.48;10595023;83;21084;-80
2020/12/02 00:41:38;;;;;;;55.00;24.70;;;;;;;-1.67;100.00;101506.83;10451340;82;21116;-80
2020/12/02 00:56:46;;;;;;;54.67;24.40;;;;;;;-1.78;100.00;101504.03;10444630;84;21499;-80
2020/12/02 01:11:53;;;;;;;57.30;24.60;;;;;;;-1.82;100.00;101491.68;10571561;84;21002;-80
2020/12/02 01:27:05;;;;;;;69.00;26.15;;;;;;;-1.89;100.00;101488.37;10522443;80;21517;-79
2020/12/02 01:42:12;;;;;;;54.40;22.73;;;;;;;-1.88;100.00;101494.34;10837169;82;21567;-79
2020/12/02 01:57:23;;;;;;;60.58;20.80;;;;;;;-1.92;100.00;101478.56;10835604;82;21080;-79
2020/12/02 02:13:17;;;;;;;59.53;24.75;;;;;;;-2.02;100.00;101472.70;10850012;82;21040;-78
2020/12/02 02:28:22;;;;;;;57.00;22.55;;;;;;;-2.13;100.00;101469.48;10808455;82;21052;-79
2020/12/02 02:43:26;;;;;;;72.93;25.87;;;;;;;-2.24;100.00;101492.34;10723529;82;21033;-79
2020/12/02 02:58:30;;;;;;;72.78;25.72;;;;;;;-2.26;100.00;101482.50;10717543;82;21423;-80
2020/12/02 03:13:43;;;;;;;85.12;31.45;;;;;;;-2.35;100.00;101473.23;10720176;82;21048;-80
2020/12/02 03:28:48;;;;;;;59.33;25.88;;;;;;;-2.48;100.00;101476.00;10721179;82;21115;-80
2020/12/02 03:43:52;;;;;;;69.20;30.00;;;;;;;-2.57;100.00;101467.55;10679897;82;21010;-80
2020/12/02 03:58:57;;;;;;;74.47;27.22;;;;;;;-2.70;100.00;101467.33;10719780;82;21307;-79
2020/12/02 04:14:02;;;;;;;77.67;29.40;;;;;;;-2.83;100.00;101480.76;10734968;82;21068;-78
2020/12/02 04:29:06;;;;;;;272.73;139.70;;;;;;;-2.92;100.00;101476.58;10744112;82;21045;-79
2020/12/02 04:44:12;;;;;;;97.57;40.17;;;;;;;-2.96;100.00;101488.22;10839755;82;21039;-79
2020/12/02 04:59:17;;;;;;;123.15;44.77;;;;;;;-3.11;100.00;101491.38;10834502;82;21036;-80
2020/12/02 05:14:24;;;;;;;130.90;47.93;;;;;;;-3.16;100.00;101498.73;10787641;81;21028;-79
2020/12/02 05:29:42;;;;;;;149.70;47.73;;;;;;;-3.14;100.00;101504.68;10753523;82;21052;-80
2020/12/02 05:44:48;;;;;;;177.78;57.03;;;;;;;-3.16;100.00;101505.15;10734356;81;21534;-80
2020/12/02 05:59:56;;;;;;;109.00;39.88;;;;;;;-3.09;100.00;101504.20;10796798;80;21066;-81
2020/12/02 06:15:04;;;;;;;93.45;38.45;;;;;;;-3.13;100.00;101506.39;10821403;82;21482;-79
2020/12/02 06:30:21;;;;;;;318.27;94.58;;;;;;;-3.00;100.00;101513.07;10817537;82;21536;-79
2020/12/02 06:45:36;;;;;;;152.53;53.48;;;;;;;-2.95;100.00;101521.58;10754397;82;21067;-79
2020/12/02 07:00:49;;;;;;;251.73;73.57;;;;;;;-2.93;100.00;101518.98;10724820;82;21014;-79
2020/12/02 07:16:00;;;;;;;122.40;42.13;;;;;;;-2.96;100.00;101513.45;10651088;82;21037;-79
2020/12/02 07:31:17;;;;;;;74.42;29.60;;;;;;;-3.06;100.00;101502.45;10634015;82;21048;-78
2020/12/02 07:46:24;;;;;;;385.98;121.05;;;;;;;-3.11;100.00;101499.53;10685124;82;21104;-78
2020/12/02 08:02:03;;;;;;;124.62;43.73;;;;;;;-2.92;100.00;101490.70;10657622;81;21491;-78
2020/12/02 08:17:33;;;;;;;249.90;85.03;;;;;;;-3.08;100.00;101482.34;10737753;82;21151;-78
2020/12/02 08:32:45;;;;;;;82.80;33.02;;;;;;;-2.86;100.00;101472.66;10747905;82;21059;-81
2020/12/02 08:47:58;;;;;;;70.30;28.75;;;;;;;-2.91;100.00;101474.88;10836054;82;21036;-80
2020/12/02 09:03:17;;;;;;;106.63;34.95;;;;;;;-2.90;100.00;101475.30;10782901;82;21071;-79
2020/12/02 09:18:27;;;;;;;163.00;54.50;;;;;;;-2.77;100.00;101468.27;10837958;82;21457;-77
2020/12/02 09:33:36;;;;;;;365.87;79.62;;;;;;;-2.77;100.00;101469.55;10646271;82;21072;-80
2020/12/02 09:48:55;;;;;;;99.90;33.42;;;;;;;-2.86;100.00;101455.13;10553786;83;21024;-79
2020/12/02 10:04:51;;;;;;;128.00;48.92;;;;;;;-2.75;100.00;101448.55;10561707;82;21073;-78
2020/12/02 10:20:09;;;;;;;93.60;37.80;;;;;;;-2.61;100.00;101435.08;10573864;83;21089;-78
2020/12/02 10:35:14;;;;;;;151.87;52.33;;;;;;;-2.70;100.00;101426.22;10566934;82;21071;-79
2020/12/02 10:50:24;;;;;;;832.43;295.83;;;;;;;-2.61;100.00;101405.52;10587590;83;21497;-81
2020/12/02 11:05:29;;;;;;;73.55;31.07;;;;;;;-2.63;100.00;101388.44;10627111;83;21107;-81
2020/12/02 11:20:49;;;;;;;202.28;63.13;;;;;;;-2.61;100.00;101361.84;10596961;83;21044;-80
2020/12/02 11:36:40;;;;;;;286.73;86.92;;;;;;;-2.58;100.00;101359.66;10550579;82;21141;-81
2020/12/02 11:51:53;;;;;;;348.70;97.67;;;;;;;-2.44;100.00;101350.42;10300696;85;21181;-81
2020/12/02 12:07:02;;;;;;;122.20;43.90;;;;;;;-2.36;100.00;101317.30;10336503;84;21037;-78
2020/12/02 12:22:32;;;;;;;96.05;43.30;;;;;;;-2.25;100.00;101300.84;10638768;82;21084;-78
2020/12/02 12:37:47;;;;;;;92.92;34.60;;;;;;;-2.19;100.00;101288.72;10689219;82;21506;-78
2020/12/02 12:52:53;;;;;;;158.25;59.20;;;;;;;-2.17;100.00;101287.39;10196637;86;21457;-80
2020/12/02 13:08:03;;;;;;;67.42;28.15;;;;;;;-2.05;100.00;101264.00;10681938;82;21135;-78
2020/12/02 13:23:12;;;;;;;80.12;31.33;;;;;;;-2.09;100.00;101243.09;10678623;82;21618;-78
2020/12/02 13:38:16;;;;;;;82.67;41.42;;;;;;;-2.14;100.00;101220.92;10732663;82;21024;-78
2020/12/02 13:53:26;;;;;;;146.80;45.78;;;;;;;-2.11;100.00;101214.42;10779886;82;21016;-78
2020/12/02 14:08:30;;;;;;;243.60;72.50;;;;;;;-2.15;100.00;101208.52;10746132;82;21108;-78
2020/12/02 14:23:35;;;;;;;259.47;62.33;;;;;;;-2.15;100.00;101199.94;10727207;82;21099;-77
2020/12/02 14:38:40;;;;;;;209.75;62.17;;;;;;;-2.08;100.00;101204.93;10824750;82;21142;-79
2020/12/02 14:53:46;;;;;;;260.07;66.13;;;;;;;-2.08;100.00;101205.38;10823719;82;21083;-80
2020/12/02 15:09:09;;;;;;;104.03;36.97;;;;;;;-2.01;100.00;101194.94;10803507;82;21091;-81
2020/12/02 15:24:16;;;;;;;130.20;48.17;;;;;;;-2.12;100.00;101184.47;10819682;82;21095;-79
2020/12/02 15:39:28;;;;;;;257.52;72.40;;;;;;;-2.24;100.00;101177.41;10780887;82;21163;-79
2020/12/02 15:54:40;;;;;;;72.78;32.03;;;;;;;-2.19;100.00;101161.87;10724326;82;21068;-82
2020/12/02 16:09:46;;;;;;;132.52;51.73;;;;;;;-2.82;100.00;101139.98;10670514;82;21604;-80
2020/12/02 16:24:50;;;;;;;442.03;176.93;;;;;;;-2.83;100.00;101138.32;10680244;82;21021;-80
2020/12/02 16:39:55;;;;;;;235.82;112.68;;;;;;;-2.18;100.00;101134.00;10588103;82;21100;-81
2020/12/02 16:55:32;;;;;;;277.73;100.00;;;;;;;-2.76;100.00;101112.49;10564688;83;21522;-79
2020/12/02 17:10:36;;;;;;;57.65;29.23;;;;;;;-2.78;100.00;101099.27;10569523;83;21021;-81
2020/12/02 17:25:50;;;;;;;83.45;35.08;;;;;;;-2.74;100.00;101100.45;10376049;85;21072;-80
2020/12/02 17:41:05;;;;;;;168.52;57.93;;;;;;;-2.81;100.00;101095.45;10405087;83;21092;-79
2020/12/02 17:56:14;;;;;;;83.60;36.27;;;;;;;-2.76;100.00;101104.79;10465040;83;20997;-79
2020/12/02 18:11:45;;;;;;;75.10;31.30;;;;;;;-2.25;100.00;101079.30;10458305;83;21113;-80
2020/12/02 18:27:02;;;;;;;84.90;44.03;;;;;;;-2.10;100.00;101086.27;10477689;83;21029;-81
2020/12/02 18:42:14;;;;;;;90.17;39.70;;;;;;;-1.94;100.00;101073.48;10429868;83;21041;-81
2020/12/02 18:57:40;;;;;;;90.05;37.03;;;;;;;-1.85;100.00;101060.82;10440696;83;21534;-82
2020/12/02 19:12:47;;;;;;;;;;;;;;;-1.69;100.00;101036.42;10428326;83;21561;-82
2020/12/02 19:28:01;;;;;;;69.97;29.83;;;;;;;-1.64;100.00;101024.72;10428624;83;20179;-80
2020/12/02 19:43:43;;;;;;;85.38;33.30;;;;;;;-1.58;100.00;101004.44;10530205;82;21083;-81
2020/12/02 19:59:34;;;;;;;60.60;27.52;;;;;;;-1.48;100.00;100989.58;10602350;82;21506;-82
2020/12/02 20:14:50;;;;;;;91.17;39.63;;;;;;;-1.48;100.00;100970.28;10564753;83;21063;-80
2020/12/02 20:29:59;;;;;;;65.20;29.23;;;;;;;-1.35;100.00;100961.33;10739254;82;21603;-82
2020/12/02 20:45:08;;;;;;;65.17;29.90;;;;;;;-1.24;100.00;100943.00;10836695;80;21099;-81
2020/12/02 21:00:15;;;;;;;72.10;34.43;;;;;;;-1.67;100.00;100933.01;10833613;80;21009;-81
2020/12/02 21:15:20;;;;;;;47.05;20.48;;;;;;;-1.08;100.00;100924.95;10840313;82;21012;-82
2020/12/02 21:30:29;;;;;;;42.88;20.60;;;;;;;-1.08;100.00;100890.61;10845818;80;21359;-79
2020/12/02 21:45:42;;;;;;;51.63;26.12;;;;;;;-0.90;100.00;100871.19;10842355;82;21068;-82
2020/12/02 22:00:47;;;;;;;99.77;41.63;;;;;;;-0.88;100.00;100861.69;10828854;82;21458;-79
2020/12/02 22:16:07;;;;;;;83.62;31.85;;;;;;;-0.81;100.00;100864.91;10641210;82;21053;-80
2020/12/02 22:31:21;;;;;;;46.75;19.60;;;;;;;-0.72;100.00;100844.01;10447851;83;21064;-81
2020/12/02 22:46:43;;;;;;;39.38;19.62;;;;;;;-0.78;100.00;100815.42;10527268;82;21112;-80
2020/12/02 23:01:48;;;;;;;38.73;18.35;;;;;;;-0.63;100.00;100808.06;10759033;80;21048;-80
2020/12/02 23:16:59;;;;;;;36.17;17.48;;;;;;;-0.66;100.00;100794.86;10798496;80;21119;-80
2020/12/02 23:32:13;;;;;;;37.33;19.07;;;;;;;-0.53;100.00;100789.68;10628844;83;21499;-79
2020/12/02 23:47:23;;;;;;;46.10;23.40;;;;;;;-0.60;100.00;100782.20;10846946;82;21032;-81
